sensor_id;sensor_type;location;lat;lon;timestamp;noise_LAeq;noise_LA_min;noise_LA_max;noise_LA01;noise_LA95
67322;Laerm;57666;51.436;5.978;2023-08-17T00:00:06;48.40;47.39;49.46;;
67322;Laerm;57666;51.436;5.978;2023-08-17T00:00:20;48.45;47.41;49.66;;
67322;Laerm;57666;51.436;5.978;2023-08-17T00:00:31;48.41;47.46;49.48;;
67322;Laerm;57666;51.436;5.978;2023-08-17T00:00:41;48.44;47.55;49.57;;
67322;Laerm;57666;51.436;5.978;2023-08-17T00:00:51;48.44;47.49;49.39;;
67322;Laerm;57666;51.436;5.978;2023-08-17T00:01:02;48.38;47.43;49.62;;
67322;Laerm;57666;51.436;5.978;2023-08-17T00:01:12;48.42;47.28;49.22;;
67322;Laerm;57666;51.436;5.978;2023-08-17T00:01:26;48.41;47.26;49.48;;
67322;Laerm;57666;51.436;5.978;2023-08-17T00:01:36;48.42;47.62;49.38;;
67322;Laerm;57666;51.436;5.978;2023-08-17T00:01:50;48.45;47.47;49.50;;
67322;Laerm;57666;51.436;5.978;2023-08-17T00:02:00;48.44;47.52;49.42;;
67322;Laerm;57666;51.436;5.978;2023-08-17T00:02:11;48.44;47.40;49.23;;
67322;Laerm;57666;51.436;5.978;2023-08-17T00:02:23;48.37;47.51;49.21;;
67322;Laerm;57666;51.436;5.978;2023-08-17T00:02:33;48.32;47.42;49.20;;
67322;Laerm;57666;51.436;5.978;2023-08-17T00:02:44;48.39;47.52;49.38;;
67322;Laerm;57666;51.436;5.978;2023-08-17T00:02:54;48.38;47.50;49.31;;
67322;Laerm;57666;51.436;5.978;2023-08-17T00:03:05;48.41;47.57;49.67;;
67322;Laerm;57666;51.436;5.978;2023-08-17T00:03:16;48.40;47.41;49.53;;
67322;Laerm;57666;51.436;5.978;2023-08-17T00:03:30;48.40;47.52;49.36;;
67322;Laerm;57666;51.436;5.978;2023-08-17T00:03:47;48.36;47.41;49.30;;
67322;Laerm;57666;51.436;5.978;2023-08-17T00:03:57;48.43;47.26;49.28;;
67322;Laerm;57666;51.436;5.978;2023-08-17T00:04:08;48.43;47.43;49.64;;
67322;Laerm;57666;51.436;5.978;2023-08-17T00:04:21;48.42;47.22;49.24;;
67322;Laerm;57666;51.436;5.978;2023-08-17T00:04:36;48.44;47.24;49.31;;
67322;Laerm;57666;51.436;5.978;2023-08-17T00:04:46;48.36;47.37;49.28;;
67322;Laerm;57666;51.436;5.978;2023-08-17T00:04:57;48.38;47.30;49.15;;
67322;Laerm;57666;51.436;5.978;2023-08-17T00:05:07;48.35;47.27;49.29;;
67322;Laerm;57666;51.436;5.978;2023-08-17T00:05:18;48.43;47.30;49.76;;
67322;Laerm;57666;51.436;5.978;2023-08-17T00:05:29;48.40;47.54;49.32;;
67322;Laerm;57666;51.436;5.978;2023-08-17T00:05:40;48.34;47.35;49.43;;
67322;Laerm;57666;51.436;5.978;2023-08-17T00:05:53;48.39;47.47;49.44;;
67322;Laerm;57666;51.436;5.978;2023-08-17T00:06:03;48.39;47.41;49.58;;
67322;Laerm;57666;51.436;5.978;2023-08-17T00:06:14;48.41;47.56;49.72;;
67322;Laerm;57666;51.436;5.978;2023-08-17T00:06:25;48.41;47.38;49.17;;
67322;Laerm;57666;51.436;5.978;2023-08-17T00:06:36;48.38;47.56;49.45;;
67322;Laerm;57666;51.436;5.978;2023-08-17T00:06:46;48.39;47.44;49.56;;
67322;Laerm;57666;51.436;5.978;2023-08-17T00:06:57;48.40;47.04;49.41;;
67322;Laerm;57666;51.436;5.978;2023-08-17T00:07:08;48.38;47.44;49.38;;
67322;Laerm;57666;51.436;5.978;2023-08-17T00:07:18;48.40;47.49;49.60;;
67322;Laerm;57666;51.436;5.978;2023-08-17T00:07:30;48.46;47.52;49.62;;
67322;Laerm;57666;51.436;5.978;2023-08-17T00:07:41;48.41;47.35;49.29;;
67322;Laerm;57666;51.436;5.978;2023-08-17T00:07:51;48.37;47.34;49.29;;
67322;Laerm;57666;51.436;5.978;2023-08-17T00:08:02;48.46;47.55;49.24;;
67322;Laerm;57666;51.436;5.978;2023-08-17T00:08:12;48.45;47.35;49.48;;
67322;Laerm;57666;51.436;5.978;2023-08-17T00:08:25;48.43;47.32;49.46;;
67322;Laerm;57666;51.436;5.978;2023-08-17T00:08:36;48.33;47.29;49.18;;
67322;Laerm;57666;51.436;5.978;2023-08-17T00:08:46;48.33;47.46;49.62;;
67322;Laerm;57666;51.436;5.978;2023-08-17T00:08:57;48.37;47.39;49.37;;
67322;Laerm;57666;51.436;5.978;2023-08-17T00:09:08;48.42;47.44;49.41;;
67322;Laerm;57666;51.436;5.978;2023-08-17T00:09:19;48.43;47.34;49.56;;
67322;Laerm;57666;51.436;5.978;2023-08-17T00:09:30;48.41;47.32;49.39;;
67322;Laerm;57666;51.436;5.978;2023-08-17T00:09:41;48.44;47.49;49.72;;
67322;Laerm;57666;51.436;5.978;2023-08-17T00:09:52;48.42;47.44;49.78;;
67322;Laerm;57666;51.436;5.978;2023-08-17T00:10:02;48.43;47.35;49.57;;
67322;Laerm;57666;51.436;5.978;2023-08-17T00:10:13;48.41;47.55;49.59;;
67322;Laerm;57666;51.436;5.978;2023-08-17T00:10:24;48.44;47.49;49.30;;
67322;Laerm;57666;51.436;5.978;2023-08-17T00:10:37;48.41;47.46;49.45;;
67322;Laerm;57666;51.436;5.978;2023-08-17T00:10:49;48.41;47.55;49.32;;
67322;Laerm;57666;51.436;5.978;2023-08-17T00:10:59;48.43;47.49;49.57;;
67322;Laerm;57666;51.436;5.978;2023-08-17T00:11:10;48.43;47.40;49.41;;
67322;Laerm;57666;51.436;5.978;2023-08-17T00:11:20;48.45;47.49;49.83;;
67322;Laerm;57666;51.436;5.978;2023-08-17T00:11:32;48.44;47.49;49.51;;
67322;Laerm;57666;51.436;5.978;2023-08-17T00:11:42;48.41;47.52;49.48;;
67322;Laerm;57666;51.436;5.978;2023-08-17T00:11:53;48.43;47.45;49.31;;
67322;Laerm;57666;51.436;5.978;2023-08-17T00:12:04;48.41;47.51;49.18;;
67322;Laerm;57666;51.436;5.978;2023-08-17T00:12:14;48.44;47.68;49.43;;
67322;Laerm;57666;51.436;5.978;2023-08-17T00:12:25;48.43;47.39;49.61;;
67322;Laerm;57666;51.436;5.978;2023-08-17T00:12:35;48.37;47.51;49.29;;
67322;Laerm;57666;51.436;5.978;2023-08-17T00:12:52;48.41;47.37;49.39;;
67322;Laerm;57666;51.436;5.978;2023-08-17T00:13:02;48.43;47.57;49.54;;
67322;Laerm;57666;51.436;5.978;2023-08-17T00:13:14;48.43;47.32;49.33;;
67322;Laerm;57666;51.436;5.978;2023-08-17T00:13:24;48.43;47.62;49.32;;
67322;Laerm;57666;51.436;5.978;2023-08-17T00:13:35;48.37;47.33;49.17;;
67322;Laerm;57666;51.436;5.978;2023-08-17T00:13:45;48.40;47.46;49.43;;
67322;Laerm;57666;51.436;5.978;2023-08-17T00:13:59;48.37;47.42;49.11;;
67322;Laerm;57666;51.436;5.978;2023-08-17T00:14:09;48.40;47.51;49.23;;
67322;Laerm;57666;51.436;5.978;2023-08-17T00:14:20;48.37;47.28;49.39;;
67322;Laerm;57666;51.436;5.978;2023-08-17T00:14:30;48.38;47.44;49.22;;
67322;Laerm;57666;51.436;5.978;2023-08-17T00:14:44;48.38;47.42;49.91;;
67322;Laerm;57666;51.436;5.978;2023-08-17T00:14:55;48.40;47.36;49.43;;
67322;Laerm;57666;51.436;5.978;2023-08-17T00:15:10;48.34;47.15;49.40;;
67322;Laerm;57666;51.436;5.978;2023-08-17T00:15:20;48.36;47.45;49.47;;
67322;Laerm;57666;51.436;5.978;2023-08-17T00:15:31;48.39;47.61;49.66;;
67322;Laerm;57666;51.436;5.978;2023-08-17T00:15:42;48.37;47.50;49.38;;
67322;Laerm;57666;51.436;5.978;2023-08-17T00:15:55;48.37;47.46;49.28;;
67322;Laerm;57666;51.436;5.978;2023-08-17T00:16:05;48.42;47.33;49.41;;
67322;Laerm;57666;51.436;5.978;2023-08-17T00:16:19;48.38;47.52;49.57;;
67322;Laerm;57666;51.436;5.978;2023-08-17T00:16:29;48.37;47.38;49.49;;
67322;Laerm;57666;51.436;5.978;2023-08-17T00:16:41;48.37;47.35;49.13;;
67322;Laerm;57666;51.436;5.978;2023-08-17T00:16:53;48.38;47.45;49.19;;
67322;Laerm;57666;51.436;5.978;2023-08-17T00:17:09;48.39;47.52;49.55;;
67322;Laerm;57666;51.436;5.978;2023-08-17T00:17:20;48.40;47.47;49.57;;
67322;Laerm;57666;51.436;5.978;2023-08-17T00:17:31;48.37;47.43;49.08;;
67322;Laerm;57666;51.436;5.978;2023-08-17T00:17:47;48.43;47.45;49.44;;
67322;Laerm;57666;51.436;5.978;2023-08-17T00:17:58;48.43;47.56;49.39;;
67322;Laerm;57666;51.436;5.978;2023-08-17T00:18:11;48.45;47.48;49.60;;
67322;Laerm;57666;51.436;5.978;2023-08-17T00:18:24;48.40;47.40;49.52;;
67322;Laerm;57666;51.436;5.978;2023-08-17T00:18:35;48.41;47.17;49.58;;
67322;Laerm;57666;51.436;5.978;2023-08-17T00:18:45;48.38;47.55;49.28;;
67322;Laerm;57666;51.436;5.978;2023-08-17T00:18:56;48.38;47.35;49.54;;
67322;Laerm;57666;51.436;5.978;2023-08-17T00:19:10;48.36;47.28;49.30;;
67322;Laerm;57666;51.436;5.978;2023-08-17T00:19:26;48.42;47.11;49.66;;
67322;Laerm;57666;51.436;5.978;2023-08-17T00:19:36;48.40;47.50;49.65;;
67322;Laerm;57666;51.436;5.978;2023-08-17T00:19:50;48.44;47.47;49.89;;
67322;Laerm;57666;51.436;5.978;2023-08-17T00:20:01;48.48;47.18;49.88;;
67322;Laerm;57666;51.436;5.978;2023-08-17T00:20:15;48.39;47.35;49.47;;
67322;Laerm;57666;51.436;5.978;2023-08-17T00:20:29;48.39;47.54;49.70;;
67322;Laerm;57666;51.436;5.978;2023-08-17T00:20:39;48.42;47.63;49.88;;
67322;Laerm;57666;51.436;5.978;2023-08-17T00:20:49;48.37;47.40;49.32;;
67322;Laerm;57666;51.436;5.978;2023-08-17T00:21:01;48.43;47.23;49.42;;
67322;Laerm;57666;51.436;5.978;2023-08-17T00:21:11;48.40;47.41;49.36;;
67322;Laerm;57666;51.436;5.978;2023-08-17T00:21:22;48.41;47.29;49.71;;
67322;Laerm;57666;51.436;5.978;2023-08-17T00:21:35;48.41;47.39;49.27;;
67322;Laerm;57666;51.436;5.978;2023-08-17T00:21:47;48.42;47.47;50.21;;
67322;Laerm;57666;51.436;5.978;2023-08-17T00:21:57;48.42;47.51;49.36;;
67322;Laerm;57666;51.436;5.978;2023-08-17T00:22:08;48.42;47.49;49.60;;
67322;Laerm;57666;51.436;5.978;2023-08-17T00:22:21;48.47;47.35;49.58;;
67322;Laerm;57666;51.436;5.978;2023-08-17T00:22:32;48.42;47.55;50.24;;
67322;Laerm;57666;51.436;5.978;2023-08-17T00:22:42;48.40;47.48;49.53;;
67322;Laerm;57666;51.436;5.978;2023-08-17T00:22:53;48.39;47.29;49.31;;
67322;Laerm;57666;51.436;5.978;2023-08-17T00:23:04;48.42;47.60;49.49;;
67322;Laerm;57666;51.436;5.978;2023-08-17T00:23:14;48.42;47.24;49.37;;
67322;Laerm;57666;51.436;5.978;2023-08-17T00:23:26;48.39;47.46;49.70;;
67322;Laerm;57666;51.436;5.978;2023-08-17T00:23:36;48.40;47.61;49.37;;
67322;Laerm;57666;51.436;5.978;2023-08-17T00:23:47;48.46;47.54;49.60;;
67322;Laerm;57666;51.436;5.978;2023-08-17T00:23:58;48.38;47.51;49.32;;
67322;Laerm;57666;51.436;5.978;2023-08-17T00:24:08;48.40;47.33;49.85;;
67322;Laerm;57666;51.436;5.978;2023-08-17T00:24:22;48.39;47.35;49.50;;
67322;Laerm;57666;51.436;5.978;2023-08-17T00:24:32;48.37;47.54;49.24;;
67322;Laerm;57666;51.436;5.978;2023-08-17T00:24:43;48.38;47.54;49.40;;
67322;Laerm;57666;51.436;5.978;2023-08-17T00:24:55;48.40;47.41;49.48;;
67322;Laerm;57666;51.436;5.978;2023-08-17T00:25:05;48.35;47.51;49.53;;
67322;Laerm;57666;51.436;5.978;2023-08-17T00:25:16;48.33;47.44;49.20;;
67322;Laerm;57666;51.436;5.978;2023-08-17T00:25:26;48.36;47.58;49.17;;
67322;Laerm;57666;51.436;5.978;2023-08-17T00:25:37;48.41;47.10;49.13;;
67322;Laerm;57666;51.436;5.978;2023-08-17T00:25:51;48.33;47.44;49.33;;
67322;Laerm;57666;51.436;5.978;2023-08-17T00:26:02;48.36;47.40;49.49;;
67322;Laerm;57666;51.436;5.978;2023-08-17T00:26:12;48.41;47.45;49.69;;
67322;Laerm;57666;51.436;5.978;2023-08-17T00:26:24;48.38;47.24;49.69;;
67322;Laerm;57666;51.436;5.978;2023-08-17T00:26:35;48.32;47.38;49.17;;
67322;Laerm;57666;51.436;5.978;2023-08-17T00:26:46;48.29;47.43;49.22;;
67322;Laerm;57666;51.436;5.978;2023-08-17T00:26:56;48.24;47.29;49.12;;
67322;Laerm;57666;51.436;5.978;2023-08-17T00:27:07;48.23;47.41;49.26;;
67322;Laerm;57666;51.436;5.978;2023-08-17T00:27:18;48.23;47.14;49.02;;
67322;Laerm;57666;51.436;5.978;2023-08-17T00:27:28;48.21;47.10;49.28;;
67322;Laerm;57666;51.436;5.978;2023-08-17T00:27:39;48.23;47.23;49.27;;
67322;Laerm;57666;51.436;5.978;2023-08-17T00:27:49;48.26;47.13;49.52;;
67322;Laerm;57666;51.436;5.978;2023-08-17T00:28:00;48.21;47.18;49.00;;
67322;Laerm;57666;51.436;5.978;2023-08-17T00:28:10;48.20;47.39;49.15;;
67322;Laerm;57666;51.436;5.978;2023-08-17T00:28:21;48.23;47.22;49.79;;
67322;Laerm;57666;51.436;5.978;2023-08-17T00:28:31;48.24;47.46;49.06;;
67322;Laerm;57666;51.436;5.978;2023-08-17T00:28:42;48.20;47.41;49.18;;
67322;Laerm;57666;51.436;5.978;2023-08-17T00:28:52;48.21;47.01;49.16;;
67322;Laerm;57666;51.436;5.978;2023-08-17T00:29:03;48.18;47.38;49.49;;
67322;Laerm;57666;51.436;5.978;2023-08-17T00:29:13;48.23;47.16;49.29;;
67322;Laerm;57666;51.436;5.978;2023-08-17T00:29:25;48.41;47.56;49.45;;
67322;Laerm;57666;51.436;5.978;2023-08-17T00:29:35;48.42;47.59;49.63;;
67322;Laerm;57666;51.436;5.978;2023-08-17T00:29:46;48.43;47.40;49.58;;
67322;Laerm;57666;51.436;5.978;2023-08-17T00:29:56;48.40;47.52;49.42;;
67322;Laerm;57666;51.436;5.978;2023-08-17T00:30:07;48.44;47.54;49.71;;
67322;Laerm;57666;51.436;5.978;2023-08-17T00:30:21;48.39;47.62;49.63;;
67322;Laerm;57666;51.436;5.978;2023-08-17T00:30:31;48.42;47.39;49.28;;
67322;Laerm;57666;51.436;5.978;2023-08-17T00:30:46;48.42;47.29;49.45;;
67322;Laerm;57666;51.436;5.978;2023-08-17T00:30:56;48.44;47.42;49.38;;
67322;Laerm;57666;51.436;5.978;2023-08-17T00:31:07;48.39;47.31;49.36;;
67322;Laerm;57666;51.436;5.978;2023-08-17T00:31:17;48.45;47.51;49.36;;
67322;Laerm;57666;51.436;5.978;2023-08-17T00:31:28;48.41;47.58;49.37;;
67322;Laerm;57666;51.436;5.978;2023-08-17T00:31:38;48.44;47.08;49.24;;
67322;Laerm;57666;51.436;5.978;2023-08-17T00:31:49;48.50;47.50;49.88;;
67322;Laerm;57666;51.436;5.978;2023-08-17T00:31:59;48.44;47.53;49.46;;
67322;Laerm;57666;51.436;5.978;2023-08-17T00:32:15;48.45;47.58;49.73;;
67322;Laerm;57666;51.436;5.978;2023-08-17T00:32:25;48.41;47.63;49.24;;
67322;Laerm;57666;51.436;5.978;2023-08-17T00:32:36;48.41;47.34;49.35;;
67322;Laerm;57666;51.436;5.978;2023-08-17T00:32:46;48.42;47.37;49.60;;
67322;Laerm;57666;51.436;5.978;2023-08-17T00:33:06;48.43;47.48;49.33;;
67322;Laerm;57666;51.436;5.978;2023-08-17T00:33:16;48.42;47.53;49.48;;
67322;Laerm;57666;51.436;5.978;2023-08-17T00:33:27;48.42;47.47;49.57;;
67322;Laerm;57666;51.436;5.978;2023-08-17T00:33:37;48.30;47.48;49.96;;
67322;Laerm;57666;51.436;5.978;2023-08-17T00:33:48;48.23;47.40;49.05;;
67322;Laerm;57666;51.436;5.978;2023-08-17T00:34:01;48.21;47.28;49.30;;
67322;Laerm;57666;51.436;5.978;2023-08-17T00:34:11;48.23;47.20;49.29;;
67322;Laerm;57666;51.436;5.978;2023-08-17T00:34:22;48.22;47.33;49.06;;
67322;Laerm;57666;51.436;5.978;2023-08-17T00:34:33;48.21;47.23;49.27;;
67322;Laerm;57666;51.436;5.978;2023-08-17T00:34:43;48.22;47.39;49.55;;
67322;Laerm;57666;51.436;5.978;2023-08-17T00:34:54;48.23;47.29;49.38;;
67322;Laerm;57666;51.436;5.978;2023-08-17T00:35:04;48.27;47.36;49.22;;
67322;Laerm;57666;51.436;5.978;2023-08-17T00:35:15;48.24;47.25;49.07;;
67322;Laerm;57666;51.436;5.978;2023-08-17T00:35:26;48.24;47.11;49.13;;
67322;Laerm;57666;51.436;5.978;2023-08-17T00:35:36;48.28;47.36;49.10;;
67322;Laerm;57666;51.436;5.978;2023-08-17T00:35:46;48.25;47.48;49.05;;
67322;Laerm;57666;51.436;5.978;2023-08-17T00:35:57;48.25;47.30;50.29;;
67322;Laerm;57666;51.436;5.978;2023-08-17T00:36:08;48.26;47.49;49.23;;
67322;Laerm;57666;51.436;5.978;2023-08-17T00:36:19;48.29;47.32;49.29;;
67322;Laerm;57666;51.436;5.978;2023-08-17T00:36:29;48.26;47.35;49.45;;
67322;Laerm;57666;51.436;5.978;2023-08-17T00:36:40;48.28;47.30;49.27;;
67322;Laerm;57666;51.436;5.978;2023-08-17T00:36:50;48.25;47.33;49.56;;
67322;Laerm;57666;51.436;5.978;2023-08-17T00:37:01;48.24;47.39;49.12;;
67322;Laerm;57666;51.436;5.978;2023-08-17T00:37:11;48.40;47.31;49.19;;
67322;Laerm;57666;51.436;5.978;2023-08-17T00:37:22;48.33;47.37;49.52;;
67322;Laerm;57666;51.436;5.978;2023-08-17T00:37:34;48.31;47.48;49.14;;
67322;Laerm;57666;51.436;5.978;2023-08-17T00:37:45;48.34;47.42;49.41;;
67322;Laerm;57666;51.436;5.978;2023-08-17T00:37:55;48.34;47.37;49.41;;
67322;Laerm;57666;51.436;5.978;2023-08-17T00:38:09;48.38;47.52;49.19;;
67322;Laerm;57666;51.436;5.978;2023-08-17T00:38:19;48.39;47.43;49.32;;
67322;Laerm;57666;51.436;5.978;2023-08-17T00:38:30;48.40;47.37;49.31;;
67322;Laerm;57666;51.436;5.978;2023-08-17T00:38:40;48.36;47.40;49.31;;
67322;Laerm;57666;51.436;5.978;2023-08-17T00:38:51;48.40;47.52;49.46;;
67322;Laerm;57666;51.436;5.978;2023-08-17T00:39:01;48.41;47.45;49.59;;
67322;Laerm;57666;51.436;5.978;2023-08-17T00:39:12;48.35;47.36;49.54;;
67322;Laerm;57666;51.436;5.978;2023-08-17T00:39:22;48.19;47.23;49.15;;
67322;Laerm;57666;51.436;5.978;2023-08-17T00:39:33;48.21;46.92;49.82;;
67322;Laerm;57666;51.436;5.978;2023-08-17T00:39:44;48.20;47.35;49.19;;
67322;Laerm;57666;51.436;5.978;2023-08-17T00:39:54;48.21;47.23;49.15;;
67322;Laerm;57666;51.436;5.978;2023-08-17T00:40:05;48.28;47.25;49.05;;
67322;Laerm;57666;51.436;5.978;2023-08-17T00:40:16;48.17;47.26;48.98;;
67322;Laerm;57666;51.436;5.978;2023-08-17T00:40:26;48.20;47.40;49.18;;
67322;Laerm;57666;51.436;5.978;2023-08-17T00:40:40;48.23;47.20;49.10;;
67322;Laerm;57666;51.436;5.978;2023-08-17T00:40:50;48.37;47.23;49.37;;
67322;Laerm;57666;51.436;5.978;2023-08-17T00:41:01;48.40;47.26;49.06;;
67322;Laerm;57666;51.436;5.978;2023-08-17T00:41:13;48.40;47.15;49.75;;
67322;Laerm;57666;51.436;5.978;2023-08-17T00:41:24;48.40;47.36;49.45;;
67322;Laerm;57666;51.436;5.978;2023-08-17T00:41:35;48.40;47.53;49.54;;
67322;Laerm;57666;51.436;5.978;2023-08-17T00:41:46;48.35;47.30;49.25;;
67322;Laerm;57666;51.436;5.978;2023-08-17T00:42:01;48.22;47.36;49.52;;
67322;Laerm;57666;51.436;5.978;2023-08-17T00:42:11;48.18;47.33;50.15;;
67322;Laerm;57666;51.436;5.978;2023-08-17T00:42:22;48.22;47.43;49.39;;
67322;Laerm;57666;51.436;5.978;2023-08-17T00:42:32;48.22;47.34;49.29;;
67322;Laerm;57666;51.436;5.978;2023-08-17T00:42:42;48.24;47.35;49.90;;
67322;Laerm;57666;51.436;5.978;2023-08-17T00:42:54;48.25;47.36;49.03;;
67322;Laerm;57666;51.436;5.978;2023-08-17T00:43:04;48.22;47.36;49.48;;
67322;Laerm;57666;51.436;5.978;2023-08-17T00:43:15;48.25;47.39;49.11;;
67322;Laerm;57666;51.436;5.978;2023-08-17T00:43:29;48.23;47.36;49.30;;
67322;Laerm;57666;51.436;5.978;2023-08-17T00:43:39;48.28;47.39;49.37;;
67322;Laerm;57666;51.436;5.978;2023-08-17T00:43:50;48.24;47.36;49.40;;
67322;Laerm;57666;51.436;5.978;2023-08-17T00:44:01;48.28;47.28;49.50;;
67322;Laerm;57666;51.436;5.978;2023-08-17T00:44:13;48.22;47.13;49.21;;
67322;Laerm;57666;51.436;5.978;2023-08-17T00:44:23;48.25;47.38;49.15;;
67322;Laerm;57666;51.436;5.978;2023-08-17T00:44:34;48.23;47.32;49.24;;
67322;Laerm;57666;51.436;5.978;2023-08-17T00:44:47;48.23;47.35;50.12;;
67322;Laerm;57666;51.436;5.978;2023-08-17T00:44:59;48.22;47.38;49.20;;
67322;Laerm;57666;51.436;5.978;2023-08-17T00:45:09;48.19;47.43;49.03;;
67322;Laerm;57666;51.436;5.978;2023-08-17T00:45:21;48.19;47.15;49.03;;
67322;Laerm;57666;51.436;5.978;2023-08-17T00:45:32;48.24;47.38;49.42;;
67322;Laerm;57666;51.436;5.978;2023-08-17T00:45:45;48.23;47.31;49.26;;
67322;Laerm;57666;51.436;5.978;2023-08-17T00:45:56;48.23;47.18;49.15;;
67322;Laerm;57666;51.436;5.978;2023-08-17T00:46:07;48.27;47.27;49.00;;
67322;Laerm;57666;51.436;5.978;2023-08-17T00:46:18;48.30;47.47;49.32;;
67322;Laerm;57666;51.436;5.978;2023-08-17T00:46:30;48.39;47.12;50.21;;
67322;Laerm;57666;51.436;5.978;2023-08-17T00:46:41;48.45;47.27;49.44;;
67322;Laerm;57666;51.436;5.978;2023-08-17T00:46:51;48.43;47.45;49.59;;
67322;Laerm;57666;51.436;5.978;2023-08-17T00:47:02;48.43;47.33;49.18;;
67322;Laerm;57666;51.436;5.978;2023-08-17T00:47:13;48.33;47.50;49.20;;
67322;Laerm;57666;51.436;5.978;2023-08-17T00:47:24;48.38;47.38;49.69;;
67322;Laerm;57666;51.436;5.978;2023-08-17T00:47:34;48.38;47.48;49.24;;
67322;Laerm;57666;51.436;5.978;2023-08-17T00:47:45;48.42;47.65;49.27;;
67322;Laerm;57666;51.436;5.978;2023-08-17T00:47:56;48.41;47.27;49.40;;
67322;Laerm;57666;51.436;5.978;2023-08-17T00:48:08;48.40;47.47;49.68;;
67322;Laerm;57666;51.436;5.978;2023-08-17T00:48:19;48.38;47.27;49.22;;
67322;Laerm;57666;51.436;5.978;2023-08-17T00:48:29;48.39;47.47;49.50;;
67322;Laerm;57666;51.436;5.978;2023-08-17T00:48:41;48.38;47.52;49.63;;
67322;Laerm;57666;51.436;5.978;2023-08-17T00:48:53;48.42;47.54;49.37;;
67322;Laerm;57666;51.436;5.978;2023-08-17T00:49:05;48.38;47.22;49.35;;
67322;Laerm;57666;51.436;5.978;2023-08-17T00:49:16;48.42;47.49;49.32;;
67322;Laerm;57666;51.436;5.978;2023-08-17T00:49:26;48.39;47.56;49.44;;
67322;Laerm;57666;51.436;5.978;2023-08-17T00:49:37;48.38;47.40;49.66;;
67322;Laerm;57666;51.436;5.978;2023-08-17T00:49:47;48.38;47.62;49.66;;
67322;Laerm;57666;51.436;5.978;2023-08-17T00:50:02;48.39;47.34;49.54;;
67322;Laerm;57666;51.436;5.978;2023-08-17T00:50:13;48.42;47.10;49.59;;
67322;Laerm;57666;51.436;5.978;2023-08-17T00:50:24;48.45;47.61;49.64;;
67322;Laerm;57666;51.436;5.978;2023-08-17T00:50:35;48.49;47.40;49.44;;
67322;Laerm;57666;51.436;5.978;2023-08-17T00:50:47;48.28;47.40;49.58;;
67322;Laerm;57666;51.436;5.978;2023-08-17T00:51:02;48.30;47.35;49.33;;
67322;Laerm;57666;51.436;5.978;2023-08-17T00:51:13;48.34;47.52;49.81;;
67322;Laerm;57666;51.436;5.978;2023-08-17T00:51:26;48.27;47.39;49.76;;
67322;Laerm;57666;51.436;5.978;2023-08-17T00:51:36;48.24;47.20;49.59;;
67322;Laerm;57666;51.436;5.978;2023-08-17T00:51:47;48.26;47.45;49.05;;
67322;Laerm;57666;51.436;5.978;2023-08-17T00:51:58;48.24;47.20;49.25;;
67322;Laerm;57666;51.436;5.978;2023-08-17T00:52:08;48.30;47.36;49.57;;
67322;Laerm;57666;51.436;5.978;2023-08-17T00:52:21;48.33;47.28;49.25;;
67322;Laerm;57666;51.436;5.978;2023-08-17T00:52:32;48.23;47.30;49.31;;
67322;Laerm;57666;51.436;5.978;2023-08-17T00:52:46;48.26;47.13;49.70;;
67322;Laerm;57666;51.436;5.978;2023-08-17T00:52:58;48.36;47.44;49.98;;
67322;Laerm;57666;51.436;5.978;2023-08-17T00:53:08;48.51;47.51;49.40;;
67322;Laerm;57666;51.436;5.978;2023-08-17T00:53:25;48.39;47.20;49.23;;
67322;Laerm;57666;51.436;5.978;2023-08-17T00:53:40;48.40;47.47;49.43;;
67322;Laerm;57666;51.436;5.978;2023-08-17T00:53:51;48.38;47.44;49.60;;
67322;Laerm;57666;51.436;5.978;2023-08-17T00:54:03;48.38;47.24;49.53;;
67322;Laerm;57666;51.436;5.978;2023-08-17T00:54:14;48.54;47.28;49.94;;
67322;Laerm;57666;51.436;5.978;2023-08-17T00:54:28;48.57;47.46;49.58;;
67322;Laerm;57666;51.436;5.978;2023-08-17T00:54:42;48.55;47.65;49.81;;
67322;Laerm;57666;51.436;5.978;2023-08-17T00:54:52;48.56;47.59;49.42;;
67322;Laerm;57666;51.436;5.978;2023-08-17T00:55:04;48.55;47.51;49.45;;
67322;Laerm;57666;51.436;5.978;2023-08-17T00:55:15;48.55;47.61;49.73;;
67322;Laerm;57666;51.436;5.978;2023-08-17T00:55:28;48.52;47.65;49.49;;
67322;Laerm;57666;51.436;5.978;2023-08-17T00:55:39;48.40;47.38;49.55;;
67322;Laerm;57666;51.436;5.978;2023-08-17T00:55:50;48.41;47.17;49.40;;
67322;Laerm;57666;51.436;5.978;2023-08-17T00:56:02;48.43;47.46;49.24;;
67322;Laerm;57666;51.436;5.978;2023-08-17T00:56:13;48.23;47.26;49.74;;
67322;Laerm;57666;51.436;5.978;2023-08-17T00:56:25;48.31;47.43;49.69;;
67322;Laerm;57666;51.436;5.978;2023-08-17T00:56:36;48.32;47.51;49.24;;
67322;Laerm;57666;51.436;5.978;2023-08-17T00:56:47;48.34;47.22;49.51;;
67322;Laerm;57666;51.436;5.978;2023-08-17T00:56:57;48.49;47.80;49.32;;
67322;Laerm;57666;51.436;5.978;2023-08-17T00:57:09;48.48;47.45;49.77;;
67322;Laerm;57666;51.436;5.978;2023-08-17T00:57:19;48.44;47.44;49.36;;
67322;Laerm;57666;51.436;5.978;2023-08-17T00:57:31;48.40;47.48;49.24;;
67322;Laerm;57666;51.436;5.978;2023-08-17T00:57:47;48.48;47.53;49.47;;
67322;Laerm;57666;51.436;5.978;2023-08-17T00:57:57;48.52;47.57;49.52;;
67322;Laerm;57666;51.436;5.978;2023-08-17T00:58:08;48.55;47.51;49.41;;
67322;Laerm;57666;51.436;5.978;2023-08-17T00:58:20;48.50;47.42;49.60;;
67322;Laerm;57666;51.436;5.978;2023-08-17T00:58:35;48.53;47.38;49.85;;
67322;Laerm;57666;51.436;5.978;2023-08-17T00:58:48;48.48;47.42;49.55;;
67322;Laerm;57666;51.436;5.978;2023-08-17T00:58:59;48.54;47.63;49.72;;
67322;Laerm;57666;51.436;5.978;2023-08-17T00:59:11;48.38;47.46;49.47;;
67322;Laerm;57666;51.436;5.978;2023-08-17T00:59:24;48.28;47.23;49.12;;
67322;Laerm;57666;51.436;5.978;2023-08-17T00:59:35;48.42;47.40;49.54;;
67322;Laerm;57666;51.436;5.978;2023-08-17T00:59:46;48.51;47.51;49.69;;
67322;Laerm;57666;51.436;5.978;2023-08-17T00:59:56;48.53;47.43;49.40;;
67322;Laerm;57666;51.436;5.978;2023-08-17T01:00:08;48.39;47.44;49.49;;
67322;Laerm;57666;51.436;5.978;2023-08-17T01:00:19;48.29;47.32;49.31;;
67322;Laerm;57666;51.436;5.978;2023-08-17T01:00:30;48.33;47.43;49.45;;
67322;Laerm;57666;51.436;5.978;2023-08-17T01:00:44;48.52;47.72;49.62;;
67322;Laerm;57666;51.436;5.978;2023-08-17T01:00:58;48.45;47.47;49.74;;
67322;Laerm;57666;51.436;5.978;2023-08-17T01:01:11;48.47;47.59;49.35;;
67322;Laerm;57666;51.436;5.978;2023-08-17T01:01:24;48.50;47.64;49.40;;
67322;Laerm;57666;51.436;5.978;2023-08-17T01:01:50;48.50;47.56;49.59;;
67322;Laerm;57666;51.436;5.978;2023-08-17T01:02:01;48.41;47.46;49.60;;
67322;Laerm;57666;51.436;5.978;2023-08-17T01:02:15;48.32;47.22;49.61;;
67322;Laerm;57666;51.436;5.978;2023-08-17T01:02:31;48.30;47.20;49.34;;
67322;Laerm;57666;51.436;5.978;2023-08-17T01:02:41;48.29;47.37;49.67;;
67322;Laerm;57666;51.436;5.978;2023-08-17T01:02:59;48.41;47.50;49.38;;
67322;Laerm;57666;51.436;5.978;2023-08-17T01:03:16;48.28;47.42;49.23;;
67322;Laerm;57666;51.436;5.978;2023-08-17T01:03:34;48.33;47.28;49.12;;
67322;Laerm;57666;51.436;5.978;2023-08-17T01:03:52;48.27;47.27;49.48;;
67322;Laerm;57666;51.436;5.978;2023-08-17T01:04:26;48.29;46.74;49.38;;
67322;Laerm;57666;51.436;5.978;2023-08-17T01:04:40;48.33;47.42;49.90;;
67322;Laerm;57666;51.436;5.978;2023-08-17T01:04:51;48.33;47.27;49.30;;